Aviation Digital Data Service (ADDS)

Output produced by TAFs form (1113 UTC 01 September 2014)
found at http://aviationweather.gov/adds/tafs/
 
KVEL 010520Z 0106/0206 36004KT P6SM SKC 
     FM011900 24010KT P6SM SKC 
     FM020100 32005KT P6SM SKC